Time;durP1;ratioP1;P1;durP2;ratioP2;P2;SDS_P1;SDS_P2;PMS_P1;PMS_P2;Temp;Humidity;BMP_temperature;BMP_pressure;BME280_temperature;BME280_humidity;BME280_pressure;Samples;Min_cycle;Max_cycle;Signal;HPM_P1;HPM_P2
2022/07/06 00:02:13;;;;;;;2.88;0.90;;;;;;;17.61;80.00;101329.94;5201018;28;20049;-75
2022/07/06 00:04:43;;;;;;;3.67;0.73;;;;;;;17.48;79.76;101333.31;5200703;28;20025;-75
2022/07/06 00:07:14;;;;;;;3.20;0.95;;;;;;;17.45;80.61;101330.84;5200712;28;20028;-75
2022/07/06 00:09:44;;;;;;;2.97;0.95;;;;;;;17.46;80.05;101346.59;5200917;28;20025;-75
2022/07/06 00:12:15;;;;;;;5.13;1.05;;;;;;;17.36;81.01;101347.16;5200673;28;20032;-75
2022/07/06 00:14:45;;;;;;;4.88;1.05;;;;;;;17.33;81.36;101342.00;5189810;28;20076;-75
2022/07/06 00:17:16;;;;;;;7.85;1.10;;;;;;;17.34;81.42;101347.22;5199164;28;20116;-75
2022/07/06 00:19:46;;;;;;;8.98;1.15;;;;;;;17.37;80.76;101341.78;5198544;28;20076;-76
2022/07/06 00:22:16;;;;;;;7.15;1.15;;;;;;;17.38;81.65;101342.63;5200858;28;20108;-76
2022/07/06 00:24:47;;;;;;;4.53;1.08;;;;;;;17.52;80.63;101340.16;5200289;28;20447;-76
2022/07/06 00:27:17;;;;;;;5.13;1.00;;;;;;;17.51;80.59;101344.56;5200395;28;20108;-74
2022/07/06 00:29:47;;;;;;;4.25;1.17;;;;;;;17.48;80.55;101339.44;5200174;28;20041;-75
2022/07/06 00:32:18;;;;;;;2.90;0.85;;;;;;;17.51;80.64;101328.69;5200947;28;20025;-73
2022/07/06 00:34:48;;;;;;;5.13;1.10;;;;;;;17.57;80.45;101338.09;5196653;28;20030;-76
2022/07/06 00:37:18;;;;;;;5.97;1.20;;;;;;;17.55;80.78;101334.69;5199837;28;20060;-75
2022/07/06 00:39:48;;;;;;;4.55;0.90;;;;;;;17.57;79.87;101327.53;5200043;28;20033;-76
2022/07/06 00:42:19;;;;;;;4.53;1.00;;;;;;;17.30;80.76;101323.66;5199523;28;20340;-75
2022/07/06 00:44:49;;;;;;;3.65;0.80;;;;;;;17.34;81.18;101325.22;5200508;28;20033;-75
2022/07/06 00:47:20;;;;;;;3.88;1.08;;;;;;;17.16;82.60;101323.50;5200066;28;20029;-75
2022/07/06 00:52:43;;;;;;;4.82;1.00;;;;;;;16.88;82.49;101315.22;5200782;28;20025;-75
2022/07/06 00:55:15;;;;;;;3.15;0.80;;;;;;;16.69;84.74;101317.06;5200614;28;20091;-75
2022/07/06 00:57:46;;;;;;;4.95;0.90;;;;;;;16.56;85.12;101315.09;5199702;28;20095;-75
2022/07/06 01:00:19;;;;;;;4.75;1.08;;;;;;;16.42;86.47;101321.03;5206359;28;20546;-75
2022/07/06 01:02:50;;;;;;;2.53;0.90;;;;;;;16.43;86.51;101317.47;5196416;28;20064;-75
2022/07/06 01:05:21;;;;;;;2.35;0.77;;;;;;;16.35;87.88;101314.34;5200401;28;20370;-75
2022/07/06 01:07:52;;;;;;;3.17;1.00;;;;;;;15.99;89.54;101317.78;5206755;28;20033;-76
2022/07/06 01:10:23;;;;;;;3.45;0.98;;;;;;;16.06;89.57;101317.44;5199696;28;20029;-75
2022/07/06 01:12:56;;;;;;;3.75;0.95;;;;;;;16.06;89.40;101320.06;5199604;28;20087;-75
2022/07/06 01:15:26;;;;;;;5.60;0.93;;;;;;;15.92;89.18;101317.25;5200053;28;20506;-76
2022/07/06 01:17:57;;;;;;;3.45;1.02;;;;;;;15.95;88.16;101317.09;5200055;28;20033;-75
2022/07/06 01:20:29;;;;;;;4.60;1.00;;;;;;;15.75;90.35;101311.88;5199943;28;20059;-76
2022/07/06 01:22:59;;;;;;;6.53;1.08;;;;;;;15.76;88.69;101313.59;5200005;28;20025;-76
2022/07/06 01:25:30;;;;;;;6.03;0.90;;;;;;;15.66;91.10;101320.16;5200209;28;20040;-75
2022/07/06 01:28:01;;;;;;;3.45;0.95;;;;;;;15.90;89.30;101305.88;5199894;28;20486;-75
2022/07/06 01:30:31;;;;;;;4.03;1.00;;;;;;;15.70;91.41;101302.44;5199256;28;20029;-75
2022/07/06 01:33:01;;;;;;;5.57;1.00;;;;;;;15.69;90.23;101309.50;5199843;28;20029;-75
2022/07/06 01:35:35;;;;;;;4.78;1.02;;;;;;;15.99;88.82;101313.38;5199533;28;20026;-75
2022/07/06 01:38:05;;;;;;;2.88;0.80;;;;;;;15.90;86.80;101318.22;5199609;28;20033;-75
2022/07/06 01:40:36;;;;;;;4.43;0.93;;;;;;;16.10;85.01;101307.59;5199356;28;20462;-76
2022/07/06 01:43:06;;;;;;;4.30;0.73;;;;;;;16.29;84.01;101301.41;5200154;28;20030;-76
2022/07/06 01:45:36;;;;;;;8.20;0.90;;;;;;;16.30;84.27;101307.53;5199746;28;20465;-75
2022/07/06 01:48:07;;;;;;;3.97;0.85;;;;;;;16.40;83.41;101309.69;5198948;28;20033;-74
2022/07/06 01:50:37;;;;;;;4.53;0.90;;;;;;;16.47;83.37;101307.63;5199615;28;20037;-75
2022/07/06 01:53:08;;;;;;;4.82;1.05;;;;;;;16.68;81.54;101307.44;5200774;28;20064;-75
2022/07/06 01:55:38;;;;;;;3.42;1.00;;;;;;;16.81;81.22;101304.13;5203304;28;20496;-75
2022/07/06 01:58:08;;;;;;;5.75;0.82;;;;;;;16.85;81.08;101302.19;5202810;28;20104;-75
2022/07/06 02:00:38;;;;;;;3.60;0.85;;;;;;;16.77;80.97;101314.06;5202817;28;20022;-76
2022/07/06 02:03:09;;;;;;;3.05;0.90;;;;;;;16.83;81.48;101311.97;5203410;28;20475;-75
2022/07/06 02:05:39;;;;;;;4.10;0.85;;;;;;;16.72;81.57;101319.56;5202837;28;20032;-76
2022/07/06 02:08:10;;;;;;;4.10;1.15;;;;;;;16.83;81.63;101317.25;5202253;28;20073;-76
2022/07/06 02:10:40;;;;;;;4.93;1.00;;;;;;;16.81;81.37;101313.84;5203050;28;20025;-75
2022/07/06 02:13:10;;;;;;;3.20;1.02;;;;;;;16.78;81.02;101321.91;5201731;28;20471;-75
2022/07/06 02:15:41;;;;;;;2.67;0.70;;;;;;;16.77;80.85;101317.56;5203008;28;20025;-76
2022/07/06 02:18:11;;;;;;;5.50;1.17;;;;;;;16.71;81.16;101323.13;5202609;28;20175;-75
2022/07/06 02:20:42;;;;;;;5.78;1.10;;;;;;;16.77;80.87;101316.69;5203035;28;20112;-76
2022/07/06 02:23:12;;;;;;;4.60;1.13;;;;;;;16.80;81.31;101322.69;5202716;28;20606;-75
2022/07/06 02:25:43;;;;;;;4.68;0.90;;;;;;;16.80;81.28;101318.25;5203570;28;20467;-75
2022/07/06 02:28:13;;;;;;;5.30;1.05;;;;;;;16.82;81.42;101326.09;5202429;28;20040;-75
2022/07/06 02:30:43;;;;;;;4.05;1.02;;;;;;;16.80;81.26;101328.81;5202504;28;20028;-75
2022/07/06 02:33:14;;;;;;;5.75;0.90;;;;;;;16.85;81.27;101324.19;5202645;28;20029;-76
2022/07/06 02:35:44;;;;;;;8.13;1.13;;;;;;;16.72;81.77;101330.09;5202628;28;20029;-75
2022/07/06 02:38:14;;;;;;;2.83;0.88;;;;;;;16.87;80.15;101329.38;5202102;28;20100;-75
2022/07/06 02:40:45;;;;;;;4.38;1.05;;;;;;;16.57;82.33;101319.44;5202341;28;20033;-75
2022/07/06 02:43:15;;;;;;;2.55;0.85;;;;;;;16.81;80.25;101321.75;5202559;28;20048;-75
2022/07/06 02:45:45;;;;;;;3.97;0.95;;;;;;;16.74;80.65;101322.97;5202570;28;20035;-75
2022/07/06 02:48:16;;;;;;;4.32;0.75;;;;;;;16.76;80.81;101325.53;5201647;28;20455;-75
2022/07/06 02:50:46;;;;;;;3.90;0.82;;;;;;;16.53;81.37;101325.81;5202688;28;20120;-76
2022/07/06 02:53:19;;;;;;;4.05;0.80;;;;;;;16.80;80.67;101312.97;5202444;28;20021;-75
2022/07/06 02:55:49;;;;;;;5.72;1.00;;;;;;;16.59;80.89;101326.34;5200703;28;20088;-76
2022/07/06 02:58:19;;;;;;;6.65;0.93;;;;;;;16.51;81.63;101325.88;5201122;28;20280;-75
2022/07/06 03:00:50;;;;;;;2.60;0.70;;;;;;;16.66;80.94;101327.78;5202239;28;20029;-76
2022/07/06 03:03:20;;;;;;;5.55;1.27;;;;;;;16.60;80.90;101324.56;5200684;28;20040;-75
2022/07/06 03:05:50;;;;;;;3.40;0.80;;;;;;;16.61;81.26;101326.28;5201478;28;20036;-76
2022/07/06 03:08:21;;;;;;;6.65;1.15;;;;;;;16.57;81.44;101330.00;5201492;28;20064;-75
2022/07/06 03:10:51;;;;;;;4.22;1.08;;;;;;;16.59;81.47;101334.25;5201846;28;20548;-75
2022/07/06 03:13:21;;;;;;;6.55;1.00;;;;;;;16.35;82.28;101335.44;5201430;28;20017;-75
2022/07/06 03:15:51;;;;;;;2.83;0.90;;;;;;;16.42;82.65;101336.84;5202097;28;20052;-76
2022/07/06 03:18:22;;;;;;;3.53;0.90;;;;;;;16.56;81.43;101337.06;5201019;28;20021;-75
2022/07/06 03:20:53;;;;;;;5.43;1.00;;;;;;;16.58;81.01;101335.19;5201949;28;20041;-75
2022/07/06 03:23:23;;;;;;;4.88;1.00;;;;;;;16.51;81.91;101325.88;5202239;28;20029;-75
2022/07/06 03:25:53;;;;;;;4.63;1.13;;;;;;;16.63;80.74;101335.84;5201667;28;20030;-75
2022/07/06 03:28:24;;;;;;;2.33;0.63;;;;;;;16.63;80.92;101330.56;5200928;28;20071;-75
2022/07/06 03:30:54;;;;;;;3.67;1.13;;;;;;;16.33;81.76;101336.41;5201491;28;20030;-75
2022/07/06 03:33:24;;;;;;;2.60;0.80;;;;;;;16.42;81.92;101331.56;5200645;28;20052;-75
2022/07/06 03:35:55;;;;;;;2.83;0.90;;;;;;;16.50;80.83;101332.09;5201559;28;20029;-75
2022/07/06 03:38:25;;;;;;;5.60;0.80;;;;;;;16.36;81.87;101334.50;5199737;28;20038;-74
2022/07/06 03:40:56;;;;;;;4.78;1.10;;;;;;;16.55;81.09;101329.22;5201475;28;20053;-76
2022/07/06 03:43:26;;;;;;;4.30;0.90;;;;;;;16.47;80.99;101331.38;5200940;28;20475;-75
2022/07/06 03:45:57;;;;;;;4.07;1.00;;;;;;;16.38;81.87;101330.00;5200875;28;20030;-75
2022/07/06 03:48:27;;;;;;;4.95;1.17;;;;;;;16.48;81.70;101326.03;5201006;28;20028;-74
2022/07/06 03:50:57;;;;;;;4.57;1.10;;;;;;;16.46;81.59;101338.44;5200487;28;20060;-75
2022/07/06 03:53:28;;;;;;;4.18;1.10;;;;;;;16.55;81.74;101326.59;5199404;28;20437;-75
2022/07/06 03:58:47;;;;;;;4.15;1.08;;;;;;;16.25;82.54;101338.56;5201005;28;20491;-75
2022/07/06 04:01:17;;;;;;;5.38;0.80;;;;;;;16.41;82.07;101335.13;5200692;28;20033;-75
2022/07/06 04:03:48;;;;;;;5.80;1.10;;;;;;;16.49;81.59;101337.41;5197335;28;20053;-76
2022/07/06 04:06:18;;;;;;;4.60;0.98;;;;;;;16.58;81.82;101343.13;5200486;28;20036;-75
2022/07/06 04:08:48;;;;;;;4.90;1.13;;;;;;;16.44;81.91;101349.97;5200715;28;20061;-75
2022/07/06 04:11:19;;;;;;;6.38;1.17;;;;;;;16.37;82.69;101352.06;5199350;28;20029;-75
2022/07/06 04:13:49;;;;;;;4.97;1.02;;;;;;;16.54;82.22;101346.84;5200171;28;20037;-75
2022/07/06 04:16:19;;;;;;;6.65;1.13;;;;;;;16.61;81.96;101348.28;5199431;28;20027;-75
2022/07/06 04:18:50;;;;;;;2.90;0.80;;;;;;;16.50;82.53;101353.19;5200438;28;20025;-75
2022/07/06 04:21:20;;;;;;;6.55;1.10;;;;;;;16.57;82.49;101357.25;5200754;28;20029;-74
2022/07/06 04:23:50;;;;;;;5.32;1.00;;;;;;;16.45;82.85;101356.97;5200984;28;20025;-75
2022/07/06 04:26:20;;;;;;;5.20;1.15;;;;;;;16.60;81.82;101356.25;5200631;28;20459;-75
2022/07/06 04:28:51;;;;;;;4.90;1.17;;;;;;;16.66;82.07;101355.94;5200251;28;20038;-75
2022/07/06 04:31:21;;;;;;;4.88;1.23;;;;;;;16.63;82.36;101351.69;5200369;28;20075;-75
2022/07/06 04:33:52;;;;;;;3.38;0.93;;;;;;;16.77;81.92;101358.00;5200752;28;20034;-75
2022/07/06 04:36:22;;;;;;;5.85;1.00;;;;;;;16.73;82.10;101362.66;5200567;28;20060;-75
2022/07/06 04:38:52;;;;;;;4.55;0.95;;;;;;;16.72;81.18;101361.78;5200302;28;20029;-75
2022/07/06 04:41:23;;;;;;;5.28;1.00;;;;;;;16.71;81.89;101357.44;5200424;28;20415;-75
2022/07/06 04:43:53;;;;;;;7.32;1.00;;;;;;;16.72;81.69;101359.16;5200356;28;20032;-75
2022/07/06 04:46:24;;;;;;;3.38;1.02;;;;;;;16.86;81.35;101354.94;5200464;28;20036;-75
2022/07/06 04:48:54;;;;;;;5.32;1.02;;;;;;;16.59;82.27;101352.75;5200101;28;20034;-75
2022/07/06 04:51:25;;;;;;;5.00;0.98;;;;;;;16.71;81.10;101353.97;5200054;28;20037;-75
2022/07/06 04:53:55;;;;;;;4.00;1.30;;;;;;;16.83;82.45;101354.22;5200508;28;20493;-75
2022/07/06 04:56:25;;;;;;;4.78;0.82;;;;;;;16.89;82.27;101353.91;5200344;28;20037;-75
2022/07/06 04:58:56;;;;;;;5.35;0.95;;;;;;;16.76;82.34;101350.16;5199969;28;20037;-75
2022/07/06 05:01:26;;;;;;;3.38;1.00;;;;;;;16.61;83.05;101355.31;5199537;28;20021;-75
2022/07/06 05:03:56;;;;;;;4.90;0.90;;;;;;;16.81;82.24;101351.63;5200726;28;20025;-75
2022/07/06 05:06:27;;;;;;;4.75;0.82;;;;;;;16.86;82.33;101351.44;5200052;28;20044;-73
2022/07/06 05:08:59;;;;;;;4.40;1.00;;;;;;;16.77;83.11;101357.16;5199682;28;20036;-75
2022/07/06 05:11:29;;;;;;;3.50;1.00;;;;;;;16.89;82.22;101364.47;5199360;28;20060;-73
2022/07/06 05:14:00;;;;;;;4.85;0.90;;;;;;;17.02;82.33;101360.31;5212991;28;20026;-75
2022/07/06 05:16:30;;;;;;;3.45;1.00;;;;;;;17.17;81.76;101365.66;5199660;28;20199;-75
2022/07/06 05:19:00;;;;;;;7.00;1.33;;;;;;;17.17;81.96;101359.53;5198672;28;20021;-75
2022/07/06 05:21:31;;;;;;;7.78;1.20;;;;;;;16.92;82.20;101359.03;5198924;28;20051;-75
2022/07/06 05:24:01;;;;;;;6.78;1.23;;;;;;;17.59;80.72;101362.66;5200121;28;20043;-73
2022/07/06 05:26:32;;;;;;;3.33;0.80;;;;;;;18.02;78.65;101355.03;5199987;28;20026;-73
2022/07/06 05:29:02;;;;;;;7.00;1.33;;;;;;;18.09;78.35;101358.22;5203210;28;20457;-75
2022/07/06 05:31:33;;;;;;;4.50;1.13;;;;;;;18.03;78.10;101359.41;5203939;28;20160;-75
2022/07/06 05:34:03;;;;;;;4.22;1.00;;;;;;;18.31;77.55;101359.66;5204185;28;20033;-75
2022/07/06 05:36:33;;;;;;;4.45;1.17;;;;;;;19.82;73.16;101352.53;5203378;28;20031;-75
2022/07/06 05:39:04;;;;;;;4.63;1.27;;;;;;;18.95;75.08;101353.31;5203735;28;20108;-75
2022/07/06 05:41:34;;;;;;;5.40;1.10;;;;;;;19.09;73.86;101353.38;5202644;28;20022;-75
2022/07/06 05:44:04;;;;;;;5.75;1.08;;;;;;;18.60;75.68;101368.63;5203746;28;20521;-75
2022/07/06 05:46:35;;;;;;;4.30;1.10;;;;;;;18.74;76.16;101366.94;5201947;28;20369;-72
2022/07/06 05:51:54;;;;;;;5.40;1.10;;;;;;;18.94;75.89;101377.25;5199886;28;20072;-75
2022/07/06 05:54:24;;;;;;;5.85;0.75;;;;;;;18.63;75.99;101374.63;5203085;28;20172;-75
2022/07/06 05:56:54;;;;;;;4.22;0.90;;;;;;;18.39;77.50;101377.78;5202998;28;20036;-75
2022/07/06 05:59:25;;;;;;;3.85;0.90;;;;;;;18.19;78.44;101376.16;5201445;28;20025;-75
2022/07/06 06:01:55;;;;;;;3.55;0.90;;;;;;;18.68;77.88;101369.91;5203503;28;20167;-75
2022/07/06 06:04:25;;;;;;;5.07;1.10;;;;;;;19.03;75.79;101369.63;5202988;28;20025;-75
2022/07/06 06:06:55;;;;;;;4.55;1.17;;;;;;;18.75;76.00;101377.44;5201669;28;20180;-75
2022/07/06 06:09:26;;;;;;;3.78;0.90;;;;;;;18.44;77.46;101378.38;5201430;28;20029;-74
2022/07/06 06:11:56;;;;;;;6.47;1.05;;;;;;;18.34;77.78;101379.81;5203175;28;20075;-75
2022/07/06 06:14:26;;;;;;;4.88;0.88;;;;;;;18.18;78.48;101379.75;5203357;28;20033;-75
2022/07/06 06:16:58;;;;;;;4.43;1.20;;;;;;;18.36;78.29;101377.94;5203200;28;20029;-75
2022/07/06 06:19:28;;;;;;;4.93;1.10;;;;;;;18.83;76.97;101375.22;5202726;28;20024;-75
2022/07/06 06:21:59;;;;;;;5.20;0.90;;;;;;;19.10;75.44;101367.47;5203293;28;20021;-74
2022/07/06 06:24:29;;;;;;;5.15;1.25;;;;;;;19.53;74.67;101362.25;5203130;28;20945;-74
2022/07/06 06:27:00;;;;;;;3.97;1.00;;;;;;;19.87;73.81;101366.34;5202836;28;20037;-75
2022/07/06 06:29:30;;;;;;;4.15;1.15;;;;;;;19.55;73.29;101368.31;5202826;28;20026;-75
2022/07/06 06:32:00;;;;;;;4.43;1.00;;;;;;;19.78;73.22;101373.06;5202272;28;20025;-75
2022/07/06 06:34:31;;;;;;;6.40;1.10;;;;;;;19.20;76.12;101369.53;5202030;28;20029;-75
2022/07/06 06:37:02;;;;;;;5.35;1.30;;;;;;;19.77;72.83;101374.03;5202010;28;20049;-75
2022/07/06 06:39:32;;;;;;;5.25;1.15;;;;;;;20.05;73.10;101368.78;5216532;28;20159;-75
2022/07/06 06:42:03;;;;;;;6.88;1.38;;;;;;;20.67;71.29;101370.13;5202324;28;20048;-76
2022/07/06 06:44:33;;;;;;;5.35;1.02;;;;;;;20.00;71.61;101367.31;5202424;28;20079;-75
2022/07/06 06:47:04;;;;;;;4.65;1.20;;;;;;;19.61;73.55;101370.59;5200096;28;20056;-74
2022/07/06 06:49:34;;;;;;;5.88;1.08;;;;;;;19.56;73.03;101367.38;5201392;28;20041;-75
2022/07/06 06:52:05;;;;;;;5.90;1.20;;;;;;;19.17;74.01;101367.06;5201790;28;20022;-75
2022/07/06 06:54:35;;;;;;;4.20;1.02;;;;;;;19.18;74.68;101378.50;5202265;28;20063;-75
2022/07/06 06:57:05;;;;;;;4.95;1.05;;;;;;;19.58;73.44;101370.78;5200980;28;20041;-75
2022/07/06 06:59:36;;;;;;;4.78;1.30;;;;;;;18.98;75.01;101371.69;5201708;28;20140;-75
2022/07/06 07:02:07;;;;;;;3.38;0.80;;;;;;;18.78;74.57;101387.84;5201379;28;20394;-75
2022/07/06 07:04:37;;;;;;;8.05;1.00;;;;;;;18.48;75.63;101377.28;5201334;28;20068;-75
2022/07/06 07:07:07;;;;;;;5.55;1.30;;;;;;;18.67;76.72;101378.78;5200165;28;20088;-75
2022/07/06 07:09:37;;;;;;;5.32;1.00;;;;;;;18.57;78.20;101388.22;5199735;28;20490;-75
2022/07/06 07:12:08;;;;;;;5.15;1.02;;;;;;;18.83;76.47;101388.47;5202293;28;20139;-75
2022/07/06 07:14:38;;;;;;;3.58;0.80;;;;;;;19.28;75.06;101388.50;5202511;28;20440;-74
2022/07/06 07:17:10;;;;;;;3.55;0.80;;;;;;;19.43;71.71;101386.75;5202212;28;20439;-75
2022/07/06 07:19:40;;;;;;;3.95;1.00;;;;;;;19.29;71.04;101389.34;5201720;28;20029;-75
2022/07/06 07:22:11;;;;;;;5.45;0.90;;;;;;;19.43;72.12;101387.59;5202179;28;20033;-74
2022/07/06 07:24:41;;;;;;;3.78;1.00;;;;;;;19.56;71.32;101387.72;5202147;28;20316;-75
2022/07/06 07:27:11;;;;;;;6.03;1.10;;;;;;;19.88;70.42;101392.81;5202009;28;20021;-75
2022/07/06 07:29:41;;;;;;;9.73;1.20;;;;;;;20.07;69.57;101390.78;5202045;28;20442;-75
2022/07/06 07:32:12;;;;;;;2.83;0.75;;;;;;;19.94;68.44;101388.94;5202190;28;20163;-74
2022/07/06 07:34:42;;;;;;;4.30;0.90;;;;;;;19.77;68.58;101395.25;5201905;28;20051;-75
2022/07/06 07:37:12;;;;;;;4.55;0.90;;;;;;;19.67;69.13;101391.47;5201264;28;20022;-75
2022/07/06 07:39:43;;;;;;;6.03;0.98;;;;;;;19.55;69.86;101399.28;5201261;28;20511;-75
2022/07/06 07:42:13;;;;;;;5.97;0.80;;;;;;;19.60;70.09;101398.06;5202063;28;20100;-75
2022/07/06 07:44:43;;;;;;;6.55;1.00;;;;;;;19.66;70.55;101400.38;5200711;28;20040;-75
2022/07/06 07:47:14;;;;;;;8.52;0.85;;;;;;;19.43;70.32;101403.50;5200901;28;20115;-75
2022/07/06 07:49:44;;;;;;;5.15;1.05;;;;;;;19.17;70.54;101404.19;5200544;28;20041;-75
2022/07/06 07:52:14;;;;;;;10.27;1.00;;;;;;;19.04;70.14;101410.22;5201267;28;20028;-75
2022/07/06 07:54:45;;;;;;;4.55;0.80;;;;;;;19.23;70.40;101401.16;5202070;28;20068;-75
2022/07/06 07:57:15;;;;;;;5.25;0.80;;;;;;;19.34;69.80;101409.38;5201269;28;20021;-75
2022/07/06 07:59:45;;;;;;;6.13;0.82;;;;;;;19.24;69.68;101410.00;5201293;28;20324;-75
2022/07/06 08:02:16;;;;;;;7.07;0.90;;;;;;;19.10;67.46;101408.06;5201148;28;20025;-74
2022/07/06 08:04:46;;;;;;;4.45;0.70;;;;;;;19.35;66.42;101415.50;5201593;28;20455;-75
2022/07/06 08:07:16;;;;;;;3.45;0.80;;;;;;;19.54;66.61;101417.00;5199878;28;20092;-75
2022/07/06 08:09:46;;;;;;;7.75;0.90;;;;;;;19.50;67.21;101410.19;5200504;28;20110;-76
2022/07/06 08:12:17;;;;;;;5.72;0.90;;;;;;;19.79;66.92;101411.94;5200345;28;20133;-75
2022/07/06 08:14:47;;;;;;;2.85;0.70;;;;;;;19.88;65.77;101415.84;5199540;28;20080;-75
2022/07/06 08:17:17;;;;;;;1.98;0.60;;;;;;;19.94;65.15;101411.00;5196181;28;20029;-75
2022/07/06 08:19:48;;;;;;;3.95;0.60;;;;;;;20.08;66.50;101407.53;5196385;28;20135;-75
2022/07/06 08:22:18;;;;;;;5.63;1.08;;;;;;;20.02;66.36;101416.75;5199577;28;20017;-75
2022/07/06 08:24:48;;;;;;;2.40;0.68;;;;;;;20.13;66.84;101406.31;5199744;28;20037;-75
2022/07/06 08:27:19;;;;;;;4.53;0.80;;;;;;;20.11;67.87;101408.22;5200315;28;20036;-75
2022/07/06 08:29:49;;;;;;;4.28;0.80;;;;;;;19.80;66.18;101415.44;5211158;28;20032;-75
2022/07/06 08:32:19;;;;;;;6.05;1.20;;;;;;;19.70;66.58;101412.50;5200921;28;20022;-75
2022/07/06 08:34:50;;;;;;;4.63;0.73;;;;;;;19.87;66.11;101415.00;5200450;28;20033;-75
2022/07/06 08:37:20;;;;;;;4.70;0.68;;;;;;;19.66;66.51;101413.63;5200308;28;20041;-75
2022/07/06 08:39:51;;;;;;;5.57;0.95;;;;;;;19.90;66.73;101413.94;5195180;28;20029;-72
2022/07/06 08:42:21;;;;;;;5.25;0.95;;;;;;;20.34;65.90;101407.66;5200357;28;20021;-75
2022/07/06 08:44:53;;;;;;;6.55;1.00;;;;;;;20.24;65.09;101410.97;5200434;28;20029;-75
2022/07/06 08:47:26;;;;;;;6.78;0.90;;;;;;;20.21;64.56;101416.47;5200263;28;20029;-75
2022/07/06 08:49:57;;;;;;;6.88;0.95;;;;;;;19.97;65.34;101415.28;5196839;28;20045;-75
2022/07/06 08:52:27;;;;;;;5.13;0.90;;;;;;;19.93;65.08;101414.59;5200863;28;20076;-75
2022/07/06 08:54:58;;;;;;;3.30;0.70;;;;;;;19.68;65.46;101414.38;5200841;28;20038;-74
2022/07/06 08:57:29;;;;;;;5.65;0.90;;;;;;;19.12;66.77;101424.75;5200110;28;20113;-75
2022/07/06 08:59:59;;;;;;;7.25;0.80;;;;;;;19.10;67.21;101418.69;5199764;28;20029;-75
2022/07/06 09:02:30;;;;;;;5.43;0.90;;;;;;;19.20;67.91;101411.97;5199515;28;20021;-74
2022/07/06 09:05:02;;;;;;;4.03;0.90;;;;;;;19.06;68.59;101425.09;5204580;28;20040;-75
2022/07/06 09:07:34;;;;;;;3.92;0.80;;;;;;;18.73;68.72;101427.94;5202707;28;20033;-75
2022/07/06 09:10:07;;;;;;;5.38;0.90;;;;;;;19.05;69.86;101420.75;5204486;28;20390;-74
2022/07/06 09:12:38;;;;;;;5.20;1.23;;;;;;;18.89;70.68;101419.91;5204113;28;20506;-75
2022/07/06 09:15:08;;;;;;;7.00;1.35;;;;;;;19.03;71.10;101425.28;5204572;28;20056;-75
2022/07/06 09:17:40;;;;;;;4.93;0.75;;;;;;;19.43;69.70;101416.75;5203700;28;20116;-75
2022/07/06 09:20:12;;;;;;;6.30;0.70;;;;;;;19.53;69.17;101417.94;5204762;28;20311;-75
2022/07/06 09:22:42;;;;;;;5.43;0.95;;;;;;;19.57;69.47;101418.59;5204447;28;20021;-74
2022/07/06 09:25:15;;;;;;;2.75;0.90;;;;;;;20.00;68.51;101429.22;5204141;28;20049;-75
2022/07/06 09:27:49;;;;;;;4.88;0.77;;;;;;;20.22;67.34;101424.34;5202062;28;20037;-75
2022/07/06 09:30:22;;;;;;;3.97;0.90;;;;;;;20.20;66.41;101417.41;5199940;28;20120;-75
2022/07/06 09:32:54;;;;;;;8.70;1.02;;;;;;;20.45;66.45;101418.44;5203601;28;20036;-75
2022/07/06 09:35:30;;;;;;;6.50;0.80;;;;;;;20.21;65.86;101420.00;5203204;28;20037;-75
2022/07/06 09:38:07;;;;;;;;;;;;;;;20.57;65.19;101414.16;5204017;28;20080;-75
2022/07/06 09:40:40;;;;;;;5.15;0.90;;;;;;;21.29;63.12;101410.28;5205413;28;20558;-72
2022/07/06 09:43:14;;;;;;;4.38;0.80;;;;;;;21.47;63.47;101401.06;5202391;28;20017;-75
2022/07/06 09:45:48;;;;;;;2.65;0.80;;;;;;;22.31;61.80;101405.84;5204123;28;20483;-76
2022/07/06 09:48:24;;;;;;;2.90;0.60;;;;;;;22.48;56.59;101410.88;5202682;28;20801;-75
2022/07/06 09:50:59;;;;;;;1.40;0.50;;;;;;;22.11;55.70;101404.56;5203610;28;20029;-75
2022/07/06 09:53:30;;;;;;;4.65;0.73;;;;;;;21.81;56.87;101411.19;5202480;28;20036;-75
2022/07/06 09:56:01;;;;;;;3.80;0.70;;;;;;;20.84;59.55;101422.13;5203283;28;20048;-74
2022/07/06 09:58:37;;;;;;;2.28;0.68;;;;;;;20.88;58.82;101414.81;5202824;28;20041;-75
2022/07/06 10:01:08;;;;;;;4.00;0.70;;;;;;;20.74;58.56;101409.50;5202172;28;20110;-73
2022/07/06 10:03:40;;;;;;;4.72;0.52;;;;;;;20.80;58.02;101414.41;5203351;28;20021;-75
2022/07/06 10:06:11;;;;;;;2.97;0.35;;;;;;;21.08;58.38;101414.38;5201511;28;20112;-75
2022/07/06 10:08:43;;;;;;;2.58;0.57;;;;;;;20.61;57.37;101419.19;5202793;28;20279;-75
2022/07/06 10:11:14;;;;;;;2.22;0.47;;;;;;;20.46;58.08;101414.00;5202735;28;20040;-75
2022/07/06 10:13:48;;;;;;;3.28;0.50;;;;;;;20.41;57.37;101422.25;5201083;28;20040;-75
2022/07/06 10:16:19;;;;;;;3.40;0.90;;;;;;;20.54;58.78;101411.69;5202677;28;20033;-75
2022/07/06 10:18:53;;;;;;;3.85;0.63;;;;;;;20.86;59.65;101408.75;5202691;28;20032;-75
2022/07/06 10:21:24;;;;;;;3.42;0.50;;;;;;;21.80;58.54;101398.81;5202704;28;20026;-75
2022/07/06 10:23:56;;;;;;;10.93;0.63;;;;;;;21.36;57.49;101404.47;5202197;28;20053;-75
2022/07/06 10:26:26;;;;;;;3.95;0.47;;;;;;;21.47;58.41;101399.28;5203167;28;20033;-75
2022/07/06 10:28:59;;;;;;;2.30;0.40;;;;;;;21.57;56.73;101410.16;5203073;28;20064;-75
2022/07/06 10:31:30;;;;;;;2.30;0.50;;;;;;;20.76;56.86;101408.44;5202735;28;20545;-75
2022/07/06 10:34:04;;;;;;;2.17;0.60;;;;;;;20.73;57.61;101397.16;5202896;28;20033;-75
2022/07/06 10:36:43;;;;;;;3.40;0.40;;;;;;;20.80;57.84;101403.78;5201914;28;20022;-72
2022/07/06 10:42:02;;;;;;;4.07;0.60;;;;;;;20.88;59.46;101401.53;5199711;28;20040;-75
2022/07/06 10:44:44;;;;;;;2.90;0.50;;;;;;;21.19;58.83;101403.84;5202094;28;20372;-75
2022/07/06 10:47:15;;;;;;;2.55;0.50;;;;;;;21.43;58.23;101400.41;5201662;28;20060;-75
2022/07/06 10:49:48;;;;;;;4.97;0.43;;;;;;;21.73;57.07;101392.22;5202738;28;20264;-75
2022/07/06 10:52:19;;;;;;;3.15;0.77;;;;;;;21.88;56.54;101392.00;5202761;28;20055;-75
2022/07/06 10:54:49;;;;;;;2.22;0.50;;;;;;;21.80;53.72;101391.72;5202100;28;20026;-75
2022/07/06 10:57:20;;;;;;;2.80;0.40;;;;;;;21.48;55.46;101392.13;5201733;28;20033;-75
2022/07/06 11:00:04;;;;;;;4.45;0.60;;;;;;;21.49;55.13;101389.38;5200404;28;20028;-76
2022/07/06 11:02:38;;;;;;;2.90;0.60;;;;;;;21.55;56.80;101396.09;5201085;28;20028;-74
2022/07/06 11:05:41;;;;;;;2.45;1.05;;;;;;;21.58;55.30;101390.56;5201905;28;20045;-75
2022/07/06 11:08:13;;;;;;;3.28;0.40;;;;;;;21.59;56.43;101394.94;5200856;28;20088;-75
2022/07/06 11:10:47;;;;;;;1.50;0.40;;;;;;;21.62;55.54;101384.06;5201481;28;20026;-75
2022/07/06 11:13:27;;;;;;;3.55;0.50;;;;;;;21.55;55.03;101382.81;5199007;28;20025;-73
2022/07/06 11:16:02;;;;;;;2.15;0.38;;;;;;;21.40;54.80;101383.84;5200450;28;20021;-75
2022/07/06 11:18:43;;;;;;;3.45;0.70;;;;;;;21.29;54.58;101383.69;5200503;28;20079;-75
2022/07/06 11:21:20;;;;;;;3.42;0.60;;;;;;;21.39;53.10;101384.78;5201574;28;20021;-75
2022/07/06 11:23:51;;;;;;;1.92;0.40;;;;;;;21.25;53.37;101387.53;5197882;28;20487;-75
2022/07/06 11:26:22;;;;;;;4.20;0.50;;;;;;;21.05;54.06;101385.31;5200604;28;20025;-75
2022/07/06 11:28:53;;;;;;;0.90;0.40;;;;;;;20.80;55.22;101388.69;5201181;28;20038;-75
2022/07/06 11:31:23;;;;;;;4.38;0.50;;;;;;;21.08;54.57;101388.63;5201061;28;20399;-75
2022/07/06 11:33:54;;;;;;;2.15;0.45;;;;;;;20.90;55.43;101376.53;5201208;28;20026;-75
2022/07/06 11:36:24;;;;;;;2.30;0.57;;;;;;;20.76;55.76;101381.00;5201738;28;20475;-75
2022/07/06 11:38:54;;;;;;;1.67;0.60;;;;;;;20.76;56.93;101378.34;5201812;28;20156;-75
2022/07/06 11:41:25;;;;;;;2.92;0.43;;;;;;;20.40;57.19;101370.09;5201236;28;20021;-75
2022/07/06 11:43:56;;;;;;;3.30;0.50;;;;;;;20.55;57.14;101384.19;5200502;28;20034;-75
2022/07/06 11:46:29;;;;;;;9.38;0.63;;;;;;;20.24;56.79;101384.41;5201430;28;20040;-75
2022/07/06 11:49:08;;;;;;;1.25;0.35;;;;;;;20.10;57.72;101387.94;5201368;28;20053;-75
2022/07/06 11:51:40;;;;;;;2.70;1.00;;;;;;;20.13;57.61;101390.38;5201288;28;20029;-75
2022/07/06 11:54:18;;;;;;;1.75;0.40;;;;;;;20.07;57.58;101389.91;5201738;28;20347;-75